Time;durP1;ratioP1;P1;durP2;ratioP2;P2;SDS_P1;SDS_P2;PMS_P1;PMS_P2;Temp;Humidity;BMP_temperature;BMP_pressure;BME280_temperature;BME280_humidity;BME280_pressure;Samples;Min_cycle;Max_cycle;Signal;HPM_P1;HPM_P2
2020/07/27 00:00:57;;;;;;;4.3;2.2;;;;;;;;;;;;;
2020/07/27 00:03:22;;;;;;;3.3;2.4;;;;;;;;;;;;;
2020/07/27 00:05:51;;;;;;;3.4;2.1;;;;;;;;;;;;;
2020/07/27 00:08:18;;;;;;;3.8;2.2;;;;;;;;;;;;;
2020/07/27 00:10:42;;;;;;;3.4;2.1;;;;;;;;;;;;;
2020/07/27 00:13:08;;;;;;;4.2;2.3;;;;;;;;;;;;;
2020/07/27 00:15:32;;;;;;;3.1;2;;;;;;;;;;;;;
2020/07/27 00:17:58;;;;;;;3.8;2;;;;;;;;;;;;;
2020/07/27 00:20:23;;;;;;;2.9;1.9;;;;;;;;;;;;;
2020/07/27 00:22:52;;;;;;;3.1;1.9;;;;;;;;;;;;;
2020/07/27 00:25:17;;;;;;;2.1;1.8;;;;;;;;;;;;;
2020/07/27 00:27:42;;;;;;;3.4;2.1;;;;;;;;;;;;;
2020/07/27 00:30:07;;;;;;;2.5;2;;;;;;;;;;;;;
2020/07/27 00:32:34;;;;;;;4.5;2.4;;;;;;;;;;;;;
2020/07/27 00:34:59;;;;;;;4.4;2.5;;;;;;;;;;;;;
2020/07/27 00:37:24;;;;;;;7.5;2.2;;;;;;;;;;;;;
2020/07/27 00:39:49;;;;;;;3.1;2;;;;;;;;;;;;;
2020/07/27 00:42:15;;;;;;;3.4;2.2;;;;;;;;;;;;;
2020/07/27 00:44:40;;;;;;;3.3;2.1;;;;;;;;;;;;;
2020/07/27 00:47:07;;;;;;;3;2;;;;;;;;;;;;;
2020/07/27 00:49:32;;;;;;;4.1;2;;;;;;;;;;;;;
2020/07/27 00:51:58;;;;;;;5.1;2.3;;;;;;;;;;;;;
2020/07/27 00:54:23;;;;;;;3.4;2.1;;;;;;;;;;;;;
2020/07/27 00:56:49;;;;;;;2.5;2;;;;;;;;;;;;;
2020/07/27 00:59:14;;;;;;;3.1;2.1;;;;;;;;;;;;;
2020/07/27 01:01:39;;;;;;;4.8;2.3;;;;;;;;;;;;;
2020/07/27 01:04:04;;;;;;;2.8;2;;;;;;;;;;;;;
2020/07/27 01:06:29;;;;;;;3.2;2.1;;;;;;;;;;;;;
2020/07/27 01:09:03;;;;;;;4.3;2.4;;;;;;;;;;;;;
2020/07/27 01:11:35;;;;;;;4;2.2;;;;;;;;;;;;;
2020/07/27 01:14:00;;;;;;;4.6;2.6;;;;;;;;;;;;;
2020/07/27 01:16:27;;;;;;;3.1;2.3;;;;;;;;;;;;;
2020/07/27 01:18:54;;;;;;;3.1;2.2;;;;;;;;;;;;;
2020/07/27 01:21:20;;;;;;;3.6;2.2;;;;;;;;;;;;;
2020/07/27 01:23:45;;;;;;;3.6;2.3;;;;;;;;;;;;;
2020/07/27 01:26:10;;;;;;;2.2;2;;;;;;;;;;;;;
2020/07/27 01:28:36;;;;;;;2.8;2;;;;;;;;;;;;;
2020/07/27 01:31:01;;;;;;;3;2;;;;;;;;;;;;;
2020/07/27 01:33:26;;;;;;;3.4;2;;;;;;;;;;;;;
2020/07/27 01:35:51;;;;;;;4.3;1.9;;;;;;;;;;;;;
2020/07/27 01:38:16;;;;;;;2.3;2;;;;;;;;;;;;;
2020/07/27 01:40:49;;;;;;;4.5;2;;;;;;;;;;;;;
2020/07/27 01:43:18;;;;;;;3.7;2;;;;;;;;;;;;;
2020/07/27 01:45:51;;;;;;;3.4;2;;;;;;;;;;;;;
2020/07/27 01:48:21;;;;;;;2.8;1.9;;;;;;;;;;;;;
2020/07/27 01:50:50;;;;;;;3.6;2.1;;;;;;;;;;;;;
2020/07/27 01:53:20;;;;;;;3.7;2;;;;;;;;;;;;;
2020/07/27 01:55:46;;;;;;;3;2;;;;;;;;;;;;;
2020/07/27 01:58:13;;;;;;;2.8;1.9;;;;;;;;;;;;;
2020/07/27 02:00:40;;;;;;;2.9;1.9;;;;;;;;;;;;;
2020/07/27 02:03:06;;;;;;;2.5;2;;;;;;;;;;;;;
2020/07/27 02:05:31;;;;;;;3.9;2;;;;;;;;;;;;;
2020/07/27 02:07:59;;;;;;;2.9;1.9;;;;;;;;;;;;;
2020/07/27 02:10:24;;;;;;;2.1;1.8;;;;;;;;;;;;;
2020/07/27 02:12:50;;;;;;;3.7;2.1;;;;;;;;;;;;;
2020/07/27 02:15:15;;;;;;;3.6;2.1;;;;;;;;;;;;;
2020/07/27 02:17:42;;;;;;;2.9;2;;;;;;;;;;;;;
2020/07/27 02:20:07;;;;;;;3.1;2.3;;;;;;;;;;;;;
2020/07/27 02:22:34;;;;;;;3;2.3;;;;;;;;;;;;;
2020/07/27 02:24:59;;;;;;;2.7;1.9;;;;;;;;;;;;;
2020/07/27 02:27:24;;;;;;;3.8;2.1;;;;;;;;;;;;;
2020/07/27 02:29:50;;;;;;;4.1;1.9;;;;;;;;;;;;;
2020/07/27 02:32:17;;;;;;;2.8;2.1;;;;;;;;;;;;;
2020/07/27 02:34:42;;;;;;;2.8;1.9;;;;;;;;;;;;;
2020/07/27 02:37:08;;;;;;;2.4;1.7;;;;;;;;;;;;;
2020/07/27 02:39:33;;;;;;;4.6;1.9;;;;;;;;;;;;;
2020/07/27 02:42:01;;;;;;;4.2;2.1;;;;;;;;;;;;;
2020/07/27 02:44:26;;;;;;;3.2;2;;;;;;;;;;;;;
2020/07/27 02:46:51;;;;;;;3;2.2;;;;;;;;;;;;;
2020/07/27 02:49:16;;;;;;;4.5;2;;;;;;;;;;;;;
2020/07/27 02:51:43;;;;;;;4.9;2;;;;;;;;;;;;;
2020/07/27 02:54:08;;;;;;;3.6;2.2;;;;;;;;;;;;;
2020/07/27 02:56:33;;;;;;;3.6;2.1;;;;;;;;;;;;;
2020/07/27 02:58:58;;;;;;;4;2;;;;;;;;;;;;;
2020/07/27 03:01:25;;;;;;;2.1;1.9;;;;;;;;;;;;;
2020/07/27 03:03:51;;;;;;;3.8;2;;;;;;;;;;;;;
2020/07/27 03:06:16;;;;;;;3.9;1.8;;;;;;;;;;;;;
2020/07/27 03:08:42;;;;;;;2.4;1.6;;;;;;;;;;;;;
2020/07/27 03:11:07;;;;;;;4.1;2;;;;;;;;;;;;;
2020/07/27 03:13:33;;;;;;;3.3;2;;;;;;;;;;;;;
2020/07/27 03:16:00;;;;;;;3.9;1.7;;;;;;;;;;;;;
2020/07/27 03:18:25;;;;;;;3.2;1.8;;;;;;;;;;;;;
2020/07/27 03:20:50;;;;;;;3.2;1.8;;;;;;;;;;;;;
2020/07/27 03:23:15;;;;;;;3.7;2.1;;;;;;;;;;;;;
2020/07/27 03:25:42;;;;;;;2.2;2;;;;;;;;;;;;;
2020/07/27 03:28:07;;;;;;;4.7;2.4;;;;;;;;;;;;;
2020/07/27 03:30:36;;;;;;;3.7;2.4;;;;;;;;;;;;;
2020/07/27 03:33:01;;;;;;;4.5;2.2;;;;;;;;;;;;;
2020/07/27 03:35:28;;;;;;;4.4;2.1;;;;;;;;;;;;;
2020/07/27 03:37:53;;;;;;;3.6;2.3;;;;;;;;;;;;;
2020/07/27 03:40:19;;;;;;;4.7;2.3;;;;;;;;;;;;;
2020/07/27 03:42:44;;;;;;;3.4;1.9;;;;;;;;;;;;;
2020/07/27 03:45:09;;;;;;;3.8;2.8;;;;;;;;;;;;;
2020/07/27 03:47:34;;;;;;;5.1;2.9;;;;;;;;;;;;;
2020/07/27 03:49:59;;;;;;;6;4;;;;;;;;;;;;;
2020/07/27 03:52:25;;;;;;;7.7;5;;;;;;;;;;;;;
2020/07/27 03:54:50;;;;;;;7.2;5.2;;;;;;;;;;;;;
2020/07/27 03:57:15;;;;;;;5.9;3;;;;;;;;;;;;;
2020/07/27 03:59:40;;;;;;;4.8;2.5;;;;;;;;;;;;;
2020/07/27 04:02:43;;;;;;;3.8;1.9;;;;;;;15.79;90.19727;941.5869;;;;
2020/07/27 04:05:19;;;;;;;3.4;2;;;;;;;15.71;90.14551;941.601;;;;
2020/07/27 04:07:49;;;;;;;2.7;1.8;;;;;;;15.51;90.72852;941.5836;;;;
2020/07/27 04:10:26;;;;;;;3.3;1.8;;;;;;;15.35;91.42188;941.5606;;;;
2020/07/27 04:12:51;;;;;;;4.8;2.2;;;;;;;15.22;92.3877;941.5571;;;;
2020/07/27 04:15:33;;;;;;;3.5;1.9;;;;;;;15.35;92.30176;941.5076;;;;
2020/07/27 04:18:00;;;;;;;8.3;2.5;;;;;;;15.53;91.57715;941.4261;;;;
2020/07/27 04:20:33;;;;;;;5;2;;;;;;;15.56;91.07422;941.4983;;;;
2020/07/27 04:22:59;;;;;;;5.8;2;;;;;;;15.68;90.83301;941.4927;;;;
2020/07/27 04:25:37;;;;;;;3.1;1.9;;;;;;;15.7;90.20313;941.4717;;;;
2020/07/27 04:28:02;;;;;;;4;2.2;;;;;;;15.69;90.10742;941.4622;;;;
2020/07/27 04:30:46;;;;;;;4.4;1.9;;;;;;;15.65;90.23828;941.4383;;;;
2020/07/27 04:33:12;;;;;;;3.5;2.2;;;;;;;15.67;90.34668;941.455;;;;
2020/07/27 04:35:39;;;;;;;4.2;1.9;;;;;;;15.64;90.7666;941.4334;;;;
2020/07/27 04:38:04;;;;;;;2.9;1.8;;;;;;;15.5;91.10742;941.4167;;;;
2020/07/27 04:40:29;;;;;;;4.1;1.7;;;;;;;15.5;91.16504;941.4311;;;;
2020/07/27 04:42:55;;;;;;;2.6;1.6;;;;;;;15.54;90.875;941.5064;;;;
2020/07/27 04:45:26;;;;;;;3.4;1.7;;;;;;;15.67;90.84277;941.4526;;;;
2020/07/27 04:47:57;;;;;;;2.7;1.9;;;;;;;15.79;90.17383;941.4239;;;;
2020/07/27 04:50:22;;;;;;;5.6;2;;;;;;;15.9;89.6416;941.3995;;;;
2020/07/27 04:52:47;;;;;;;2.3;2;;;;;;;16.05;89.5459;941.3675;;;;
2020/07/27 04:55:12;;;;;;;2.6;2;;;;;;;16.16;88.3877;941.4261;;;;
2020/07/27 04:57:45;;;;;;;4.7;1.6;;;;;;;16.15;88.38477;941.4191;;;;
2020/07/27 05:00:11;;;;;;;5.6;1.7;;;;;;;16.24;88.50879;941.368;;;;
2020/07/27 05:02:36;;;;;;;2.7;1.8;;;;;;;16.43;88.51367;941.3885;;;;
2020/07/27 05:05:01;;;;;;;3.6;1.6;;;;;;;16.37;87.44824;941.4402;;;;
2020/07/27 05:07:27;;;;;;;3.4;1.8;;;;;;;16.47;87.85938;941.4059;;;;
2020/07/27 05:10:02;;;;;;;4.9;2.3;;;;;;;16.52;87.1416;941.4344;;;;
2020/07/27 05:12:34;;;;;;;4.2;2.1;;;;;;;16.51;87.47559;941.5084;;;;
2020/07/27 05:14:59;;;;;;;5.8;2;;;;;;;16.51;87.91699;941.5092;;;;
2020/07/27 05:17:29;;;;;;;2.3;1.6;;;;;;;16.52;87.47754;941.5535;;;;
2020/07/27 05:19:54;;;;;;;5.3;2;;;;;;;16.54;87.52734;941.5244;;;;
2020/07/27 05:22:23;;;;;;;6;1.9;;;;;;;16.46;88.17188;941.5997;;;;
2020/07/27 05:24:48;;;;;;;2.9;1.6;;;;;;;16.69;88.50684;941.5469;;;;
2020/07/27 05:27:13;;;;;;;4.1;1.4;;;;;;;17.66;84.16602;941.5815;;;;
2020/07/27 05:29:43;;;;;;;2.7;1.4;;;;;;;18.79;78.21387;941.4807;;;;
2020/07/27 05:32:08;;;;;;;2.4;1.2;;;;;;;19.3;76.33496;941.5248;;;;
2020/07/27 05:34:33;;;;;;;7.5;1.5;;;;;;;20.26;73.58301;941.5505;;;;
2020/07/27 05:36:59;;;;;;;2.7;1.1;;;;;;;21.09;69.05566;941.5478;;;;
2020/07/27 05:39:24;;;;;;;6.2;1.4;;;;;;;21.76;67.45996;941.5284;;;;
2020/07/27 05:41:53;;;;;;;1.6;0.9;;;;;;;22.87;63.31934;941.4553;;;;
2020/07/27 05:44:21;;;;;;;2.3;1;;;;;;;23.92;59.64258;941.5611;;;;
2020/07/27 05:46:46;;;;;;;4.1;1.2;;;;;;;24.6;57.56543;941.5613;;;;
2020/07/27 05:49:26;;;;;;;3.1;0.8;;;;;;;25.07;55.43066;941.5377;;;;
2020/07/27 05:51:52;;;;;;;1.9;0.9;;;;;;;24.95;56.26563;941.517;;;;
2020/07/27 05:54:17;;;;;;;4.7;1;;;;;;;24.92;55.38965;941.4863;;;;
2020/07/27 05:56:50;;;;;;;2;0.9;;;;;;;24.95;55.19141;941.5391;;;;
2020/07/27 05:59:15;;;;;;;4.7;1.2;;;;;;;25.7;53.75977;941.4299;;;;
2020/07/27 06:01:45;;;;;;;5.3;1;;;;;;;25.51;54.43359;941.4563;;;;
2020/07/27 06:04:10;;;;;;;4.1;1.2;;;;;;;26.31;51.89258;941.3704;;;;
2020/07/27 06:06:44;;;;;;;2.3;0.8;;;;;;;26.31;51.22949;941.3929;;;;
2020/07/27 06:09:09;;;;;;;4.2;0.9;;;;;;;26.48;52.30273;941.34;;;;
2020/07/27 06:11:48;;;;;;;3.8;1;;;;;;;27.37;50.12988;941.3792;;;;
2020/07/27 06:14:25;;;;;;;1.6;1;;;;;;;27.97;48.66309;941.3929;;;;
2020/07/27 06:16:54;;;;;;;1.1;0.8;;;;;;;27.7;47.42383;941.3544;;;;
2020/07/27 06:19:27;;;;;;;3.6;0.9;;;;;;;28.5;46.41309;941.3621;;;;
2020/07/27 06:21:56;;;;;;;1.6;0.9;;;;;;;29.47;45.22754;941.3039;;;;
2020/07/27 06:24:28;;;;;;;2.4;1;;;;;;;27.58;45.86719;941.2847;;;;
2020/07/27 06:26:54;;;;;;;1.8;0.9;;;;;;;26.86;48.85156;941.2781;;;;
2020/07/27 06:29:22;;;;;;;1.9;1;;;;;;;25.97;51.33203;941.3029;;;;
2020/07/27 06:31:47;;;;;;;1.4;1.1;;;;;;;25.37;54.68848;941.28;;;;
2020/07/27 06:34:15;;;;;;;6.8;1.5;;;;;;;25.49;55.30566;941.2498;;;;
2020/07/27 06:36:46;;;;;;;3.2;1.1;;;;;;;25.68;53.27246;941.2374;;;;
2020/07/27 06:39:12;;;;;;;10.2;2.3;;;;;;;26.14;52.03809;941.2726;;;;
2020/07/27 06:41:38;;;;;;;2.6;1;;;;;;;26.3;52.7666;941.2115;;;;
2020/07/27 06:44:03;;;;;;;4.2;1.2;;;;;;;26.37;51.39063;941.2274;;;;
2020/07/27 06:46:37;;;;;;;6.1;1.5;;;;;;;28.62;46.21191;941.1984;;;;
2020/07/27 06:49:12;;;;;;;2.7;1;;;;;;;28.42;46.14453;941.1412;;;;
2020/07/27 06:51:44;;;;;;;3.4;1;;;;;;;28.79;44.33789;941.1262;;;;
2020/07/27 06:54:10;;;;;;;2.7;1;;;;;;;28.95;44.66211;941.1647;;;;
2020/07/27 06:56:35;;;;;;;2.6;0.9;;;;;;;28.51;46.36719;941.1616;;;;
2020/07/27 06:59:00;;;;;;;1.3;0.9;;;;;;;29.54;45.24609;941.0988;;;;
2020/07/27 07:01:25;;;;;;;1.5;0.8;;;;;;;28.92;43.43457;941.1068;;;;
2020/07/27 07:03:50;;;;;;;1.7;1;;;;;;;26.68;48.74902;941.0298;;;;
2020/07/27 07:06:15;;;;;;;1.2;0.9;;;;;;;27.52;50.97656;940.9963;;;;
2020/07/27 07:08:41;;;;;;;1.6;0.9;;;;;;;29.64;45.125;940.9225;;;;
2020/07/27 07:11:06;;;;;;;1;0.8;;;;;;;31.26;41.72168;940.8976;;;;
2020/07/27 07:13:31;;;;;;;2.5;0.6;;;;;;;31.54;41.36426;940.7974;;;;
2020/07/27 07:16:00;;;;;;;1.8;0.8;;;;;;;32.41;36.72852;940.8762;;;;
2020/07/27 07:18:25;;;;;;;1;0.7;;;;;;;32.52;37.85352;940.8374;;;;
2020/07/27 07:20:50;;;;;;;2.3;0.6;;;;;;;32.63;36.63867;940.8494;;;;
2020/07/27 07:23:15;;;;;;;1.1;0.7;;;;;;;32.81;37.50586;940.815;;;;
2020/07/27 07:25:40;;;;;;;1.7;0.9;;;;;;;32.15;37.45117;940.791;;;;
2020/07/27 07:28:05;;;;;;;2.4;0.9;;;;;;;30.93;40.56738;940.7664;;;;
2020/07/27 07:30:37;;;;;;;1.4;0.8;;;;;;;31.42;39.46191;940.6967;;;;
2020/07/27 07:33:02;;;;;;;1.3;0.9;;;;;;;32.35;36.00488;940.6749;;;;
2020/07/27 07:35:27;;;;;;;1.6;0.8;;;;;;;33.19;36.11914;940.6524;;;;
2020/07/27 07:37:53;;;;;;;1.4;0.7;;;;;;;33.12;36.46191;940.7265;;;;
2020/07/27 07:40:18;;;;;;;2.6;0.9;;;;;;;33.08;38.27246;940.6767;;;;
2020/07/27 07:42:44;;;;;;;3.2;0.9;;;;;;;30.88;39.6543;940.5862;;;;
2020/07/27 07:45:10;;;;;;;1.7;0.8;;;;;;;29.96;41.86426;940.5983;;;;
2020/07/27 07:47:36;;;;;;;1.9;0.9;;;;;;;29.14;43.46777;940.5934;;;;
2020/07/27 07:50:01;;;;;;;1.3;1;;;;;;;30.63;41.4248;940.5728;;;;
2020/07/27 07:52:26;;;;;;;3.1;0.8;;;;;;;31.86;38.73242;940.5698;;;;
2020/07/27 07:54:51;;;;;;;2.6;0.9;;;;;;;31.28;38.9707;940.4855;;;;
2020/07/27 07:57:17;;;;;;;2.1;0.8;;;;;;;31.24;37.86621;940.5109;;;;
2020/07/27 07:59:42;;;;;;;2.9;0.9;;;;;;;31.3;38.96191;940.3728;;;;
2020/07/27 08:02:07;;;;;;;3.8;1.2;;;;;;;32.08;37.64941;940.4433;;;;
2020/07/27 08:04:37;;;;;;;1.1;0.8;;;;;;;30.65;39.16797;940.3997;;;;
2020/07/27 08:07:03;;;;;;;2.9;1.1;;;;;;;29.92;42.02734;940.3873;;;;
2020/07/27 08:09:28;;;;;;;2.9;1;;;;;;;30.04;41.1084;940.3458;;;;
2020/07/27 08:11:55;;;;;;;1.6;0.9;;;;;;;29.47;43.09375;940.3178;;;;
2020/07/27 08:14:20;;;;;;;3;1.2;;;;;;;28.39;46.0459;940.3167;;;;
2020/07/27 08:16:45;;;;;;;2.2;0.9;;;;;;;28.26;46.79297;940.3056;;;;
2020/07/27 08:19:10;;;;;;;1.9;0.7;;;;;;;29.62;44.2041;940.2464;;;;
2020/07/27 08:21:35;;;;;;;2.4;0.8;;;;;;;32.01;40.91504;940.2542;;;;
2020/07/27 08:24:00;;;;;;;1.7;0.8;;;;;;;30.9;39.18945;940.1813;;;;
2020/07/27 08:26:25;;;;;;;1.2;0.7;;;;;;;31.99;38.43262;940.2145;;;;
2020/07/27 08:28:50;;;;;;;0.8;0.7;;;;;;;31.14;39.38965;940.1252;;;;
2020/07/27 08:31:16;;;;;;;0.9;0.7;;;;;;;29.79;40.65527;940.1253;;;;
2020/07/27 08:33:41;;;;;;;1.2;0.7;;;;;;;29.4;42.63379;940.1099;;;;
2020/07/27 08:36:06;;;;;;;1.8;0.8;;;;;;;28.65;45.50098;940.1121;;;;
2020/07/27 08:38:31;;;;;;;3.7;0.8;;;;;;;32.06;40.66797;940.0525;;;;
2020/07/27 08:40:56;;;;;;;1;0.7;;;;;;;32.71;35.94922;940.0639;;;;
2020/07/27 08:43:21;;;;;;;1.9;0.9;;;;;;;34.4;33.76953;939.9955;;;;
2020/07/27 08:45:48;;;;;;;1.6;0.7;;;;;;;35.46;33.81152;939.9964;;;;
2020/07/27 08:48:13;;;;;;;1.3;0.8;;;;;;;36.45;30.33887;940.006;;;;
2020/07/27 08:50:38;;;;;;;2;0.8;;;;;;;36.36;31.90625;939.9897;;;;
2020/07/27 08:53:03;;;;;;;1.3;0.6;;;;;;;36.89;30.15039;939.9934;;;;
2020/07/27 08:55:28;;;;;;;1;0.7;;;;;;;34.87;33.28516;939.9589;;;;
2020/07/27 08:57:53;;;;;;;1;0.6;;;;;;;34.43;34.41016;939.9199;;;;
2020/07/27 09:00:29;;;;;;;1.4;0.7;;;;;;;35.52;30.63965;939.9364;;;;
2020/07/27 09:02:54;;;;;;;1.6;0.8;;;;;;;34.35;34.31934;939.9127;;;;
2020/07/27 09:05:19;;;;;;;1.3;0.8;;;;;;;34.8;34.37793;939.8998;;;;
2020/07/27 09:07:44;;;;;;;1.9;0.8;;;;;;;35.44;30.58691;939.883;;;;
2020/07/27 09:10:14;;;;;;;0.9;0.6;;;;;;;35.78;30.14941;939.9127;;;;
2020/07/27 09:12:39;;;;;;;1.5;0.7;;;;;;;36.11;28.5625;939.9327;;;;
2020/07/27 09:15:04;;;;;;;2.6;0.6;;;;;;;35.78;32.08301;939.9261;;;;
2020/07/27 09:17:29;;;;;;;2.9;0.8;;;;;;;35.62;32.79688;939.8488;;;;
2020/07/27 09:19:55;;;;;;;1.1;0.8;;;;;;;35.12;33.39941;939.866;;;;
2020/07/27 09:22:20;;;;;;;2;1;;;;;;;34.65;31.72656;939.8247;;;;
2020/07/27 09:24:45;;;;;;;2.9;0.8;;;;;;;32.76;33.98438;939.8483;;;;
2020/07/27 09:27:10;;;;;;;1.4;0.8;;;;;;;32.21;34.84277;939.8167;;;;
2020/07/27 09:29:36;;;;;;;2.5;1;;;;;;;32.43;35.07422;939.8244;;;;
2020/07/27 09:32:01;;;;;;;1.6;0.8;;;;;;;32.2;37.38281;939.7977;;;;
2020/07/27 09:34:27;;;;;;;1.1;0.7;;;;;;;31.37;35.23242;939.7405;;;;
2020/07/27 09:36:52;;;;;;;2.4;0.9;;;;;;;31.78;39.22949;939.7081;;;;
2020/07/27 09:39:17;;;;;;;0.7;0.7;;;;;;;32;34.47949;939.697;;;;
2020/07/27 09:41:42;;;;;;;0.8;0.8;;;;;;;32.3;35.29297;939.7034;;;;
2020/07/27 09:44:07;;;;;;;1.7;0.8;;;;;;;32.63;39.39941;939.7136;;;;
2020/07/27 09:46:32;;;;;;;2.8;0.9;;;;;;;32.89;36.02246;939.6832;;;;
2020/07/27 09:48:57;;;;;;;3.1;1;;;;;;;32.66;40.21777;939.6703;;;;
2020/07/27 09:51:23;;;;;;;2.6;0.9;;;;;;;32.69;40.66504;939.6553;;;;
2020/07/27 09:53:48;;;;;;;3.6;1.3;;;;;;;32.76;38.22266;939.6516;;;;
2020/07/27 09:56:13;;;;;;;3.5;0.9;;;;;;;32.95;34.9834;939.6144;;;;
2020/07/27 09:58:38;;;;;;;3.2;1;;;;;;;32.57;38.51758;939.5661;;;;
2020/07/27 10:01:05;;;;;;;1.3;0.8;;;;;;;32.61;41.43848;939.5419;;;;
2020/07/27 10:03:30;;;;;;;2.1;0.8;;;;;;;32.91;40.92383;939.5388;;;;
2020/07/27 10:05:57;;;;;;;1.6;0.8;;;;;;;33.05;36.34766;939.5335;;;;
2020/07/27 10:08:25;;;;;;;2.1;0.9;;;;;;;32.89;36.56445;939.5267;;;;
2020/07/27 10:10:47;;;;;;;2;0.8;;;;;;;32.9;37.93359;939.4559;;;;
2020/07/27 10:13:13;;;;;;;4.1;0.9;;;;;;;32.67;37.31348;939.4968;;;;
2020/07/27 10:15:42;;;;;;;1.9;0.8;;;;;;;32.73;38.60254;939.4464;;;;
2020/07/27 10:18:08;;;;;;;2.2;0.9;;;;;;;32.3;41.12109;939.3864;;;;
2020/07/27 10:20:33;;;;;;;1.2;0.7;;;;;;;32.3;39.5498;939.3715;;;;
2020/07/27 10:22:58;;;;;;;1.3;0.6;;;;;;;32.4;37.26855;939.3464;;;;
2020/07/27 10:25:23;;;;;;;1.2;0.7;;;;;;;32.42;37.67773;939.3647;;;;
2020/07/27 10:27:48;;;;;;;1.7;0.8;;;;;;;32.25;39.77344;939.324;;;;
2020/07/27 10:30:14;;;;;;;1.6;0.9;;;;;;;32.44;39.39453;939.2679;;;;
2020/07/27 10:32:39;;;;;;;15.5;8.1;;;;;;;32.78;37.4668;939.2083;;;;
2020/07/27 10:35:04;;;;;;;20.8;13.6;;;;;;;32.78;37.49121;939.1557;;;;
2020/07/27 10:37:30;;;;;;;19.9;12;;;;;;;33.09;37.13281;939.1774;;;;
2020/07/27 10:39:55;;;;;;;23.8;15.3;;;;;;;33.24;39.04395;939.1365;;;;
2020/07/27 10:42:20;;;;;;;13.3;9.2;;;;;;;33.66;34.92969;939.045;;;;
2020/07/27 10:44:45;;;;;;;23.4;14;;;;;;;33.97;36.49316;939.0164;;;;
2020/07/27 10:47:10;;;;;;;2.5;1.2;;;;;;;34.44;35.50684;939.007;;;;
2020/07/27 10:49:35;;;;;;;3.2;1.9;;;;;;;34.88;34.93945;939.0157;;;;
2020/07/27 10:52:00;;;;;;;4.8;3;;;;;;;34.97;34.89746;939.0283;;;;
2020/07/27 10:54:26;;;;;;;2.4;1.6;;;;;;;34.96;36.60938;938.9953;;;;
2020/07/27 10:56:51;;;;;;;2;0.8;;;;;;;34.43;36.80762;938.9786;;;;
2020/07/27 10:59:16;;;;;;;6.3;2.4;;;;;;;34.85;35.8291;939.0094;;;;
2020/07/27 11:01:41;;;;;;;1.7;1.1;;;;;;;34.89;34.15527;938.9529;;;;
2020/07/27 11:04:06;;;;;;;1.8;1.2;;;;;;;35.05;35.06055;938.9576;;;;
2020/07/27 11:06:31;;;;;;;1.3;0.9;;;;;;;35.18;33.0791;938.9678;;;;
2020/07/27 11:08:56;;;;;;;1.5;0.7;;;;;;;35.11;33.94238;938.8678;;;;
2020/07/27 11:11:21;;;;;;;3.2;1;;;;;;;35.21;35.04883;938.8399;;;;
2020/07/27 11:13:46;;;;;;;3.5;0.9;;;;;;;35.38;34.6748;938.7578;;;;
2020/07/27 11:16:13;;;;;;;1.5;0.8;;;;;;;34.76;35.33984;938.6978;;;;
2020/07/27 11:18:38;;;;;;;1.3;0.8;;;;;;;34.69;36.21387;938.6465;;;;
2020/07/27 11:21:03;;;;;;;1.7;0.8;;;;;;;34.64;36.3916;938.6339;;;;
2020/07/27 11:23:28;;;;;;;2.5;1;;;;;;;34.7;37.34863;938.6158;;;;
2020/07/27 11:25:53;;;;;;;1.8;1;;;;;;;34.72;35.26465;938.6213;;;;
2020/07/27 11:28:18;;;;;;;2.3;0.9;;;;;;;34.77;35.70215;938.5506;;;;
2020/07/27 11:30:47;;;;;;;2.6;0.9;;;;;;;34.68;35.74316;938.4928;;;;
2020/07/27 11:33:12;;;;;;;2.1;1.1;;;;;;;34.15;35.79883;938.5041;;;;
2020/07/27 11:35:37;;;;;;;2.4;0.7;;;;;;;33.63;36.3584;938.4508;;;;
2020/07/27 11:38:03;;;;;;;2.1;0.9;;;;;;;33.34;37.70605;938.3677;;;;
2020/07/27 11:40:28;;;;;;;2.2;0.9;;;;;;;33.16;37.95508;938.3788;;;;
2020/07/27 11:42:53;;;;;;;1.7;0.6;;;;;;;33.07;36.60254;938.3455;;;;
2020/07/27 11:45:21;;;;;;;1.2;0.8;;;;;;;32.88;37.87109;938.287;;;;
2020/07/27 11:47:47;;;;;;;4.4;1;;;;;;;32.26;39.06738;938.243;;;;
2020/07/27 11:50:12;;;;;;;1.7;0.9;;;;;;;31.99;41.14063;938.2399;;;;
2020/07/27 11:52:37;;;;;;;1.3;0.8;;;;;;;31.83;39.71289;938.2057;;;;
2020/07/27 11:55:03;;;;;;;2.1;0.7;;;;;;;31.84;39.41406;938.1443;;;;
2020/07/27 11:57:27;;;;;;;5.1;0.9;;;;;;;31.61;43.51367;938.0871;;;;
2020/07/27 11:59:52;;;;;;;1.1;0.8;;;;;;;31.28;42.83594;938.0274;;;;
2020/07/27 12:02:18;;;;;;;2.9;0.8;;;;;;;31.16;43.99609;937.9698;;;;
2020/07/27 12:04:42;;;;;;;2;0.9;;;;;;;30.84;45.13672;937.8825;;;;
2020/07/27 12:07:08;;;;;;;1.3;0.8;;;;;;;30.87;42.13965;937.8495;;;;
2020/07/27 12:09:33;;;;;;;3;0.9;;;;;;;30.53;44.86719;937.8329;;;;
2020/07/27 12:11:58;;;;;;;1.8;0.9;;;;;;;30.25;46.02051;937.7401;;;;
2020/07/27 12:14:23;;;;;;;3.8;0.9;;;;;;;30.31;44.79688;937.8223;;;;
2020/07/27 12:16:48;;;;;;;1.6;1;;;;;;;30.4;45.09277;937.82;;;;
2020/07/27 12:19:13;;;;;;;1.5;0.9;;;;;;;30.48;44.3125;937.8437;;;;
2020/07/27 12:21:39;;;;;;;4.2;1;;;;;;;30.4;45.35547;937.8206;;;;
2020/07/27 12:24:04;;;;;;;2.4;1;;;;;;;30.3;45.33398;937.7723;;;;
2020/07/27 12:26:29;;;;;;;3.1;1.4;;;;;;;30.29;44.86719;937.7619;;;;
2020/07/27 12:28:55;;;;;;;2.4;1.1;;;;;;;30.29;44.1748;937.6722;;;;
2020/07/27 12:31:19;;;;;;;3.6;0.9;;;;;;;30.27;45.7373;937.6331;;;;
2020/07/27 12:33:44;;;;;;;3.3;1.1;;;;;;;30.41;43.55469;937.6234;;;;
2020/07/27 12:36:10;;;;;;;3.1;1.2;;;;;;;30.38;43.35938;937.6238;;;;
2020/07/27 12:38:35;;;;;;;5.2;1;;;;;;;30.38;43.04883;937.5739;;;;
2020/07/27 12:41:02;;;;;;;1.5;0.9;;;;;;;30.33;43.86816;937.603;;;;
2020/07/27 12:43:27;;;;;;;4.2;0.9;;;;;;;30.46;44.63379;937.493;;;;
2020/07/27 12:45:53;;;;;;;3.1;1;;;;;;;30.05;43.41113;937.4519;;;;
2020/07/27 12:48:18;;;;;;;2.1;0.8;;;;;;;30.23;43.76172;937.4749;;;;
2020/07/27 12:50:43;;;;;;;1.2;1;;;;;;;30.2;43.4375;937.5148;;;;
2020/07/27 12:53:08;;;;;;;1.5;0.9;;;;;;;30.04;43.14844;937.5065;;;;
2020/07/27 12:55:34;;;;;;;2.7;0.9;;;;;;;29.91;44.05469;937.4448;;;;
2020/07/27 12:57:59;;;;;;;2.1;1;;;;;;;30.05;44.22266;937.4427;;;;
2020/07/27 13:00:29;;;;;;;1;0.8;;;;;;;29.65;43.41016;937.4395;;;;
2020/07/27 13:02:52;;;;;;;4.4;0.9;;;;;;;29.63;44.0625;937.4064;;;;
2020/07/27 13:05:19;;;;;;;1.8;0.8;;;;;;;29.76;45.17285;937.3969;;;;
2020/07/27 13:07:44;;;;;;;2;0.9;;;;;;;29.85;45.19336;937.3297;;;;
2020/07/27 13:10:11;;;;;;;1.2;0.8;;;;;;;29.82;45.28613;937.3452;;;;
2020/07/27 13:12:36;;;;;;;2.9;0.8;;;;;;;29.93;45.83398;937.3449;;;;
2020/07/27 13:15:01;;;;;;;3.1;1;;;;;;;29.86;47.24609;937.378;;;;
2020/07/27 13:17:26;;;;;;;2.2;0.8;;;;;;;30.04;46.16797;937.3067;;;;
2020/07/27 13:19:51;;;;;;;2.4;0.9;;;;;;;29.9;46.09375;937.3536;;;;
2020/07/27 13:22:16;;;;;;;1.8;0.8;;;;;;;30.01;44.625;937.2747;;;;
2020/07/27 13:24:42;;;;;;;5.2;1;;;;;;;30.15;45.56934;937.3323;;;;
2020/07/27 13:27:07;;;;;;;1.4;1;;;;;;;29.97;44.37012;937.2883;;;;
2020/07/27 13:29:32;;;;;;;4.7;1.1;;;;;;;29.85;44.54883;937.282;;;;
2020/07/27 13:31:59;;;;;;;3.1;0.9;;;;;;;30.01;46.28223;937.2438;;;;
2020/07/27 13:34:24;;;;;;;1.4;0.8;;;;;;;30.12;44.4209;937.2283;;;;
2020/07/27 13:36:49;;;;;;;2.2;0.8;;;;;;;30.14;43.88672;937.2459;;;;
2020/07/27 13:39:14;;;;;;;3.3;1;;;;;;;29.99;45.73242;937.1854;;;;
2020/07/27 13:41:39;;;;;;;1.2;0.8;;;;;;;29.66;43.41016;937.1256;;;;
2020/07/27 13:44:04;;;;;;;2.1;0.9;;;;;;;29.54;46.58105;937.1791;;;;
2020/07/27 13:46:29;;;;;;;1.4;0.9;;;;;;;29.64;45.89941;937.1802;;;;
2020/07/27 13:48:54;;;;;;;1.5;1;;;;;;;29.69;47.74023;937.1728;;;;
2020/07/27 13:51:19;;;;;;;1.6;0.8;;;;;;;29.51;46.85254;937.1417;;;;
2020/07/27 13:53:44;;;;;;;2;0.9;;;;;;;29.26;47.5293;937.1541;;;;
2020/07/27 13:56:09;;;;;;;2.2;1;;;;;;;29.2;46.99902;937.1371;;;;
2020/07/27 13:58:35;;;;;;;2;1;;;;;;;29.22;47.14258;937.0967;;;;
2020/07/27 14:01:00;;;;;;;3.1;1.1;;;;;;;29.22;46.70313;937.0892;;;;
2020/07/27 14:03:26;;;;;;;3.2;1;;;;;;;28.92;45.13672;937.0476;;;;
2020/07/27 14:05:52;;;;;;;2;0.9;;;;;;;29.03;45.48047;937.0424;;;;
2020/07/27 14:08:17;;;;;;;1.6;0.9;;;;;;;29.07;46.60352;937.0292;;;;
2020/07/27 14:10:42;;;;;;;2.8;0.9;;;;;;;29.17;46.16113;937.0006;;;;
2020/07/27 14:13:07;;;;;;;1.4;0.8;;;;;;;29.01;45.82324;937.0027;;;;
2020/07/27 14:15:32;;;;;;;2.8;1;;;;;;;29.1;45.49902;936.9807;;;;
2020/07/27 14:17:57;;;;;;;2.8;0.9;;;;;;;29.2;45.87988;936.9501;;;;
2020/07/27 14:20:23;;;;;;;2.3;0.9;;;;;;;29.3;45.79297;936.9238;;;;
2020/07/27 14:22:48;;;;;;;1.6;0.9;;;;;;;29.37;45.39551;936.9053;;;;
2020/07/27 14:25:19;;;;;;;1.7;0.8;;;;;;;29.24;46.31055;936.867;;;;
2020/07/27 14:27:46;;;;;;;1.1;0.8;;;;;;;29.35;45.27441;936.8547;;;;
2020/07/27 14:30:15;;;;;;;2;1;;;;;;;29.51;45.16016;936.8334;;;;
2020/07/27 14:32:40;;;;;;;3.3;0.9;;;;;;;29.53;46.99707;936.8538;;;;
2020/07/27 14:35:19;;;;;;;1.3;0.9;;;;;;;29.62;46.13672;936.8331;;;;
2020/07/27 14:37:46;;;;;;;2.4;0.9;;;;;;;29.62;46.64844;936.8122;;;;
2020/07/27 14:40:11;;;;;;;1.1;0.8;;;;;;;29.58;45.38184;936.7999;;;;
2020/07/27 14:42:36;;;;;;;2.3;0.7;;;;;;;29.33;43.99707;936.7899;;;;
2020/07/27 14:45:02;;;;;;;3;0.8;;;;;;;29.48;45.86035;936.7291;;;;
2020/07/27 14:47:30;;;;;;;3.9;1;;;;;;;29.58;46.14453;936.7414;;;;
2020/07/27 14:49:55;;;;;;;2.8;0.9;;;;;;;29.59;45.5957;936.745;;;;
2020/07/27 14:52:21;;;;;;;1.5;0.8;;;;;;;29.48;45.2041;936.7114;;;;
2020/07/27 14:54:46;;;;;;;1;0.8;;;;;;;29.42;43.80371;936.6417;;;;
2020/07/27 14:57:12;;;;;;;3.6;1.1;;;;;;;29.31;45.50879;936.6225;;;;
2020/07/27 14:59:37;;;;;;;2.6;0.9;;;;;;;29.33;45.77344;936.6605;;;;
2020/07/27 15:02:03;;;;;;;1.7;0.9;;;;;;;29.37;45.44336;936.5984;;;;
2020/07/27 15:04:29;;;;;;;5.3;1;;;;;;;29.35;46.02637;936.6247;;;;
2020/07/27 15:06:54;;;;;;;1.1;0.8;;;;;;;29.11;44.36914;936.5919;;;;
2020/07/27 15:09:24;;;;;;;4.1;1;;;;;;;29.09;45.24805;936.5739;;;;
2020/07/27 15:11:45;;;;;;;2.1;1;;;;;;;29.15;46.3623;936.5614;;;;
2020/07/27 15:14:11;;;;;;;1.3;0.8;;;;;;;29.23;47.40625;936.537;;;;
2020/07/27 15:16:36;;;;;;;2.2;0.9;;;;;;;29.3;47.67578;936.5539;;;;
2020/07/27 15:19:06;;;;;;;5.1;1;;;;;;;29.19;46.33105;936.5391;;;;
2020/07/27 15:21:28;;;;;;;2.2;1.1;;;;;;;29.16;48.16113;936.4895;;;;
2020/07/27 15:23:54;;;;;;;3.8;1.1;;;;;;;29.18;47.16309;936.5137;;;;
2020/07/27 15:26:25;;;;;;;2.4;0.9;;;;;;;29.25;46.50391;936.5143;;;;
2020/07/27 15:28:54;;;;;;;6.2;1.1;;;;;;;29.31;46.12793;936.4844;;;;
2020/07/27 15:31:20;;;;;;;2.6;1;;;;;;;29.28;46.49414;936.4936;;;;
2020/07/27 15:33:46;;;;;;;3.2;1.1;;;;;;;29.2;45.18848;936.4064;;;;
2020/07/27 15:36:12;;;;;;;2.9;1;;;;;;;28.94;46.10156;936.4022;;;;
2020/07/27 15:38:39;;;;;;;2.1;0.9;;;;;;;28.99;46.64258;936.4343;;;;